Time;durP1;ratioP1;P1;durP2;ratioP2;P2;SDS_P1;SDS_P2;PMS_P1;PMS_P2;Temp;Humidity;BMP_temperature;BMP_pressure;BME280_temperature;BME280_humidity;BME280_pressure;Samples;Min_cycle;Max_cycle;Signal;HPM_P1;HPM_P2
2023/09/14 00:00:44;;;;;;;9.27;2.53;;;14.80;99.90;;;;;;4972943;28;20256;-67
2023/09/14 00:03:10;;;;;;;9.70;2.72;;;14.80;99.90;;;;;;4973107;28;20205;-65
2023/09/14 00:05:44;;;;;;;8.68;2.60;;;14.80;99.90;;;;;;4972474;28;20200;-65
2023/09/14 00:08:11;;;;;;;14.55;2.78;;;14.80;99.90;;;;;;4971649;28;20224;-66
2023/09/14 00:10:37;;;;;;;7.63;2.40;;;14.80;99.90;;;;;;4972035;28;20667;-66
2023/09/14 00:13:04;;;;;;;9.13;2.53;;;14.80;99.90;;;;;;4972477;28;20197;-67
2023/09/14 00:15:30;;;;;;;9.07;2.75;;;14.90;99.90;;;;;;4972302;28;20209;-65
2023/09/14 00:17:56;;;;;;;8.73;2.75;;;14.90;99.90;;;;;;4954294;28;20193;-66
2023/09/14 00:20:27;;;;;;;12.30;2.70;;;14.90;99.90;;;;;;4950428;28;20673;-66
2023/09/14 00:22:55;;;;;;;8.82;2.45;;;14.90;99.90;;;;;;4955684;28;20704;-65
2023/09/14 00:25:21;;;;;;;6.30;2.25;;;14.90;99.90;;;;;;4973060;28;20185;-65
2023/09/14 00:27:48;;;;;;;6.80;2.72;;;14.90;99.90;;;;;;4972723;28;20256;-67
2023/09/14 00:30:14;;;;;;;6.85;2.30;;;14.90;99.90;;;;;;4954474;28;20195;-67
2023/09/14 00:32:41;;;;;;;6.85;2.40;;;15.00;99.90;;;;;;4972286;28;20217;-66
2023/09/14 00:35:07;;;;;;;11.55;2.65;;;15.00;99.90;;;;;;4972926;28;20270;-65
2023/09/14 00:37:34;;;;;;;11.35;2.35;;;15.00;99.90;;;;;;4954703;28;20610;-67
2023/09/14 00:39:59;;;;;;;8.40;2.15;;;15.00;99.90;;;;;;4971955;28;20182;-67
2023/09/14 00:42:25;;;;;;;8.77;2.22;;;15.00;99.90;;;;;;4971752;28;20190;-66
2023/09/14 00:44:51;;;;;;;10.63;2.65;;;15.00;99.90;;;;;;4955031;28;20760;-66
2023/09/14 00:47:17;;;;;;;7.22;2.42;;;15.00;99.90;;;;;;4972280;28;20311;-66
2023/09/14 00:49:43;;;;;;;6.60;2.10;;;15.00;99.90;;;;;;4954840;28;20736;-67
2023/09/14 00:52:10;;;;;;;11.30;2.50;;;15.10;99.90;;;;;;4971594;28;20197;-67
2023/09/14 00:54:38;;;;;;;8.82;2.50;;;15.10;99.90;;;;;;4972651;28;20257;-66
2023/09/14 00:57:04;;;;;;;5.57;2.45;;;15.10;99.90;;;;;;4954209;28;20202;-66
2023/09/14 00:59:31;;;;;;;5.25;2.35;;;15.10;99.90;;;;;;4954829;28;20182;-67
2023/09/14 01:01:57;;;;;;;8.85;2.40;;;15.10;99.90;;;;;;4954535;28;20217;-66
2023/09/14 01:04:29;;;;;;;7.55;2.22;;;15.10;99.90;;;;;;4955238;28;20584;-66
2023/09/14 01:06:56;;;;;;;8.52;2.60;;;15.10;99.90;;;;;;4971755;28;20218;-66
2023/09/14 01:09:22;;;;;;;9.27;2.13;;;15.10;99.90;;;;;;4972678;28;20204;-65
2023/09/14 01:11:48;;;;;;;7.78;2.10;;;15.10;99.90;;;;;;4954587;28;20190;-66
2023/09/14 01:14:26;;;;;;;6.50;2.33;;;15.10;99.90;;;;;;4954961;28;20651;-65
2023/09/14 01:17:08;;;;;;;6.35;1.80;;;15.10;99.90;;;;;;4954905;28;20197;-66
2023/09/14 01:19:41;;;;;;;7.05;2.08;;;15.10;99.90;;;;;;4955131;28;20202;-65
2023/09/14 01:22:25;;;;;;;6.18;2.00;;;15.10;99.90;;;;;;4971471;28;20201;-65
2023/09/14 01:25:17;;;;;;;13.75;2.67;;;15.10;99.90;;;;;;4955152;28;20182;-65
2023/09/14 01:27:44;;;;;;;8.98;2.40;;;15.10;99.90;;;;;;4951757;28;20325;-65
2023/09/14 01:30:10;;;;;;;5.50;2.13;;;15.20;99.90;;;;;;4975156;28;20277;-64
2023/09/14 01:32:36;;;;;;;5.10;1.90;;;15.20;99.90;;;;;;4975000;28;20197;-67
2023/09/14 01:35:05;;;;;;;5.68;1.80;;;15.10;99.90;;;;;;4958729;28;20193;-66
2023/09/14 01:37:31;;;;;;;8.13;2.10;;;15.10;99.90;;;;;;4975618;28;20194;-65
2023/09/14 01:39:58;;;;;;;6.13;2.22;;;15.10;99.90;;;;;;4974581;28;20182;-66
2023/09/14 01:42:25;;;;;;;5.63;1.95;;;15.10;99.90;;;;;;4974135;28;20194;-65
2023/09/14 01:44:51;;;;;;;5.20;1.85;;;15.10;99.90;;;;;;4956758;28;20189;-68
2023/09/14 01:47:18;;;;;;;6.88;1.80;;;15.10;99.90;;;;;;4958236;28;20216;-66
2023/09/14 01:49:44;;;;;;;5.68;2.50;;;15.10;99.90;;;;;;4956698;28;20261;-66
2023/09/14 01:52:11;;;;;;;8.90;2.50;;;15.10;99.90;;;;;;4957820;28;20557;-66
2023/09/14 01:54:37;;;;;;;5.57;2.20;;;15.10;99.90;;;;;;4941904;28;20268;-67
2023/09/14 01:57:03;;;;;;;5.68;2.35;;;15.00;99.90;;;;;;4957688;28;20285;-66
2023/09/14 01:59:30;;;;;;;7.13;2.60;;;15.00;99.90;;;;;;4957894;28;20190;-67
2023/09/14 02:01:56;;;;;;;5.20;2.13;;;15.00;99.90;;;;;;4956768;28;20198;-66
2023/09/14 02:04:21;;;;;;;7.03;1.90;;;14.90;99.90;;;;;;4974358;28;20209;-66
2023/09/14 02:06:47;;;;;;;8.70;2.35;;;14.90;99.90;;;;;;4957810;28;20240;-66
2023/09/14 02:09:13;;;;;;;8.05;2.35;;;14.90;99.90;;;;;;4938732;29;20191;-66
2023/09/14 02:11:39;;;;;;;4.35;2.17;;;14.80;99.90;;;;;;4970574;28;20202;-66
2023/09/14 02:14:05;;;;;;;8.63;2.08;;;14.80;99.90;;;;;;4974532;28;20277;-66
2023/09/14 02:16:30;;;;;;;6.03;2.45;;;14.70;99.90;;;;;;4956201;28;20619;-66
2023/09/14 02:18:56;;;;;;;5.05;2.20;;;14.70;99.90;;;;;;4975476;28;20765;-66
2023/09/14 02:21:22;;;;;;;6.13;2.13;;;14.70;99.90;;;;;;4957839;28;20669;-67
2023/09/14 02:23:48;;;;;;;5.10;2.30;;;14.70;99.90;;;;;;4975184;28;20562;-66
2023/09/14 02:26:14;;;;;;;11.85;2.20;;;14.70;99.90;;;;;;4973603;28;20193;-67
2023/09/14 02:28:40;;;;;;;4.47;1.95;;;14.70;99.90;;;;;;4957103;28;20646;-67
2023/09/14 02:31:07;;;;;;;6.07;2.10;;;14.70;99.90;;;;;;4957590;28;20185;-66
2023/09/14 02:33:33;;;;;;;5.30;1.92;;;14.70;99.90;;;;;;4941781;28;20178;-65
2023/09/14 02:35:59;;;;;;;8.18;2.33;;;14.70;99.90;;;;;;4957400;28;20188;-67
2023/09/14 02:38:25;;;;;;;6.25;1.90;;;14.70;99.90;;;;;;4956587;28;20666;-66
2023/09/14 02:40:53;;;;;;;6.20;2.17;;;14.70;99.90;;;;;;4956031;28;20288;-66
2023/09/14 02:43:18;;;;;;;5.78;1.98;;;14.70;99.90;;;;;;4957606;28;20196;-66
2023/09/14 02:45:44;;;;;;;7.00;2.28;;;14.70;99.90;;;;;;4956556;28;20186;-66
2023/09/14 02:48:12;;;;;;;4.95;1.80;;;14.70;99.90;;;;;;4956230;28;20273;-66
2023/09/14 02:50:38;;;;;;;6.22;2.13;;;14.70;99.90;;;;;;4957128;28;20202;-66
2023/09/14 02:53:04;;;;;;;6.75;2.00;;;14.70;99.90;;;;;;4957201;28;20248;-66
2023/09/14 02:55:32;;;;;;;4.40;1.90;;;14.70;99.90;;;;;;4956817;28;20221;-66
2023/09/14 02:57:58;;;;;;;6.22;1.85;;;14.70;99.90;;;;;;4957294;28;20272;-66
2023/09/14 03:00:24;;;;;;;4.35;1.95;;;14.70;99.90;;;;;;4955070;28;20340;-67
2023/09/14 03:02:51;;;;;;;8.77;2.35;;;14.80;99.90;;;;;;4957094;28;20189;-66
2023/09/14 03:05:17;;;;;;;7.35;1.92;;;14.80;99.90;;;;;;4956583;28;20334;-66
2023/09/14 03:07:45;;;;;;;5.55;2.17;;;14.70;99.90;;;;;;4956685;28;20614;-66
2023/09/14 03:10:10;;;;;;;4.85;1.83;;;14.80;99.90;;;;;;4955339;28;20190;-66
2023/09/14 03:12:36;;;;;;;8.80;2.05;;;14.80;99.90;;;;;;4956641;28;20298;-66
2023/09/14 03:15:02;;;;;;;5.82;2.50;;;14.80;99.90;;;;;;4972631;28;20190;-66
2023/09/14 03:17:28;;;;;;;7.78;2.33;;;14.80;99.90;;;;;;4955847;28;20281;-66
2023/09/14 03:19:56;;;;;;;9.00;2.10;;;14.80;99.90;;;;;;4954673;28;20269;-66
2023/09/14 03:22:21;;;;;;;8.75;2.05;;;14.80;99.90;;;;;;4956660;28;20213;-66
2023/09/14 03:24:47;;;;;;;5.55;1.88;;;14.80;99.90;;;;;;4956628;28;20229;-66
2023/09/14 03:27:13;;;;;;;8.57;2.05;;;14.80;99.90;;;;;;4937464;29;20223;-66
2023/09/14 03:29:39;;;;;;;8.05;2.17;;;14.80;99.90;;;;;;4966910;28;20206;-66
2023/09/14 03:32:05;;;;;;;9.82;1.92;;;14.80;99.90;;;;;;4956075;28;20193;-66
2023/09/14 03:34:31;;;;;;;6.50;1.90;;;14.80;99.90;;;;;;4988021;28;20821;-67
2023/09/14 03:36:57;;;;;;;6.72;1.83;;;14.80;99.90;;;;;;4973294;28;20225;-65
2023/09/14 03:39:23;;;;;;;9.25;1.88;;;14.80;99.90;;;;;;4924229;28;20186;-66
2023/09/14 03:41:49;;;;;;;7.05;2.40;;;14.70;99.90;;;;;;4955000;28;20276;-65
2023/09/14 03:44:16;;;;;;;9.20;2.33;;;14.70;99.90;;;;;;4973255;28;20269;-65
2023/09/14 03:46:42;;;;;;;6.68;2.33;;;14.70;99.90;;;;;;4956066;28;20241;-65
2023/09/14 03:49:08;;;;;;;9.65;2.40;;;14.60;99.90;;;;;;4955455;28;20265;-65
2023/09/14 03:51:34;;;;;;;5.88;2.13;;;14.60;99.90;;;;;;4955433;28;20256;-65
2023/09/14 03:53:59;;;;;;;9.90;2.33;;;14.50;99.90;;;;;;4954937;28;20270;-65
2023/09/14 03:56:25;;;;;;;4.32;2.08;;;14.50;99.90;;;;;;4955770;28;20198;-65
2023/09/14 03:58:51;;;;;;;8.45;2.30;;;14.40;99.90;;;;;;4955860;28;20240;-64
2023/09/14 04:01:17;;;;;;;8.07;2.60;;;14.40;99.90;;;;;;4972482;28;20192;-67
2023/09/14 04:03:44;;;;;;;6.72;2.20;;;14.30;99.90;;;;;;4953992;28;20276;-64
2023/09/14 04:06:10;;;;;;;8.32;2.15;;;14.30;99.90;;;;;;4938816;28;20701;-67
2023/09/14 04:08:36;;;;;;;6.63;2.30;;;14.20;99.90;;;;;;4954922;28;20218;-66
2023/09/14 04:11:02;;;;;;;4.25;2.45;;;14.20;99.90;;;;;;4938638;28;20284;-68
2023/09/14 04:13:34;;;;;;;7.80;2.70;;;14.10;99.90;;;;;;4954301;28;20182;-66
2023/09/14 04:16:11;;;;;;;9.57;2.83;;;14.10;99.90;;;;;;4948025;28;20281;-65
2023/09/14 04:18:39;;;;;;;8.63;3.10;;;14.00;99.90;;;;;;4954788;28;20207;-66
2023/09/14 04:21:06;;;;;;;9.25;3.00;;;14.00;99.90;;;;;;4955502;28;20209;-67
2023/09/14 04:23:33;;;;;;;8.60;3.03;;;13.90;99.90;;;;;;4954837;28;20387;-65
2023/09/14 04:26:01;;;;;;;10.13;3.10;;;13.90;99.90;;;;;;4956045;28;20213;-66
2023/09/14 04:28:27;;;;;;;6.40;3.13;;;13.80;99.90;;;;;;4971969;28;20222;-67
2023/09/14 04:30:57;;;;;;;5.78;2.72;;;13.80;99.90;;;;;;4955558;28;20256;-67
2023/09/14 04:33:24;;;;;;;9.18;2.80;;;13.70;99.90;;;;;;4953905;28;20190;-67
2023/09/14 04:35:58;;;;;;;12.80;3.17;;;13.70;99.90;;;;;;4955211;28;20690;-66
2023/09/14 04:38:24;;;;;;;8.93;3.10;;;13.60;99.90;;;;;;4960439;28;20204;-65
2023/09/14 04:40:51;;;;;;;7.13;3.05;;;13.60;99.90;;;;;;4955153;28;20249;-68
2023/09/14 04:43:17;;;;;;;8.60;2.97;;;13.50;99.90;;;;;;4955200;28;20197;-66
2023/09/14 04:45:46;;;;;;;6.85;2.85;;;13.50;99.90;;;;;;4954180;28;20190;-65
2023/09/14 04:48:12;;;;;;;8.32;2.67;;;13.50;99.90;;;;;;4954967;28;20241;-67
2023/09/14 04:50:38;;;;;;;13.15;3.22;;;13.40;99.90;;;;;;4955459;28;20236;-67
2023/09/14 04:53:04;;;;;;;8.27;2.95;;;13.40;99.90;;;;;;4955532;28;20278;-68
2023/09/14 04:55:29;;;;;;;8.25;3.20;;;13.40;99.90;;;;;;4953293;28;20628;-69
2023/09/14 04:57:55;;;;;;;9.80;2.92;;;13.30;99.90;;;;;;4983249;28;20193;-68
2023/09/14 05:00:21;;;;;;;8.18;3.30;;;13.30;99.90;;;;;;4972580;28;20186;-64
2023/09/14 05:02:47;;;;;;;11.73;3.60;;;13.20;99.90;;;;;;4972702;28;20549;-68
2023/09/14 05:05:13;;;;;;;9.80;3.17;;;13.20;99.90;;;;;;4947496;28;20179;-63
2023/09/14 05:07:41;;;;;;;10.77;3.47;;;13.20;99.90;;;;;;4953836;28;20224;-65
2023/09/14 05:10:08;;;;;;;9.50;3.47;;;13.20;99.90;;;;;;4958208;28;20642;-64
2023/09/14 05:12:34;;;;;;;13.18;3.40;;;13.10;99.90;;;;;;4974711;28;20218;-66
2023/09/14 05:15:01;;;;;;;16.40;3.60;;;13.10;99.90;;;;;;4942676;28;20511;-66
2023/09/14 05:17:28;;;;;;;12.63;3.70;;;13.10;99.90;;;;;;4955759;28;20646;-65
2023/09/14 05:19:54;;;;;;;10.27;3.65;;;13.10;99.90;;;;;;4989402;28;20232;-65
2023/09/14 05:22:21;;;;;;;11.85;3.38;;;13.00;99.90;;;;;;4956395;28;20235;-64
2023/09/14 05:24:47;;;;;;;8.90;3.20;;;13.00;99.90;;;;;;4955036;28;20189;-65
2023/09/14 05:27:13;;;;;;;11.75;3.20;;;13.00;99.90;;;;;;4958575;28;20246;-65
2023/09/14 05:29:39;;;;;;;8.88;2.95;;;13.00;99.90;;;;;;4975685;28;20190;-65
2023/09/14 05:32:05;;;;;;;10.60;3.67;;;13.00;99.90;;;;;;4975597;28;20200;-65
2023/09/14 05:34:31;;;;;;;11.65;3.35;;;13.00;99.90;;;;;;4956681;28;20194;-64
2023/09/14 05:36:57;;;;;;;6.88;2.67;;;13.00;99.90;;;;;;4952705;28;20233;-63
2023/09/14 05:39:24;;;;;;;10.40;3.30;;;13.10;99.90;;;;;;4958556;28;20194;-65
2023/09/14 05:41:50;;;;;;;11.48;3.17;;;13.10;99.90;;;;;;4957077;28;20209;-63
2023/09/14 05:44:16;;;;;;;12.80;3.17;;;13.10;99.90;;;;;;4956146;28;20248;-63
2023/09/14 05:46:43;;;;;;;13.77;3.33;;;13.10;99.90;;;;;;4937562;28;20217;-63
2023/09/14 05:49:09;;;;;;;11.55;3.38;;;13.10;99.90;;;;;;4956748;28;20288;-63
2023/09/14 05:51:36;;;;;;;10.18;3.42;;;13.20;99.90;;;;;;4957476;28;20248;-69
2023/09/14 05:54:03;;;;;;;20.58;3.53;;;13.20;99.90;;;;;;4957664;28;20247;-65
2023/09/14 05:56:29;;;;;;;11.88;3.00;;;13.20;99.90;;;;;;4957759;28;20205;-67
2023/09/14 05:58:55;;;;;;;10.30;3.10;;;13.30;99.90;;;;;;4940810;28;20186;-67
2023/09/14 06:01:22;;;;;;;8.63;3.10;;;13.30;99.90;;;;;;4971348;28;20293;-66
2023/09/14 06:03:48;;;;;;;10.65;3.28;;;13.30;99.90;;;;;;4974071;28;20310;-66
2023/09/14 06:06:15;;;;;;;11.65;2.53;;;13.40;99.90;;;;;;4954647;28;20201;-66
2023/09/14 06:08:41;;;;;;;10.07;2.67;;;13.40;99.90;;;;;;4951540;28;20214;-66
2023/09/14 06:11:09;;;;;;;17.48;3.45;;;13.40;99.90;;;;;;4953307;28;20539;-68
2023/09/14 06:13:36;;;;;;;11.30;3.05;;;13.50;99.90;;;;;;4953962;28;20684;-66
2023/09/14 06:16:02;;;;;;;11.50;2.83;;;13.50;99.90;;;;;;4981093;28;20182;-66
2023/09/14 06:18:28;;;;;;;12.02;3.03;;;13.50;99.90;;;;;;4977742;28;21378;-69
2023/09/14 06:20:54;;;;;;;13.98;2.70;;;13.60;99.90;;;;;;4972387;28;20327;-69
2023/09/14 06:23:20;;;;;;;11.00;3.10;;;13.60;99.90;;;;;;4963137;28;20198;-66
2023/09/14 06:25:46;;;;;;;9.95;2.50;;;13.70;99.90;;;;;;4973983;28;20519;-67
2023/09/14 06:28:12;;;;;;;12.75;2.92;;;13.70;99.90;;;;;;4972042;28;20213;-66
2023/09/14 06:30:37;;;;;;;9.70;2.95;;;13.70;99.90;;;;;;4979470;28;20181;-66
2023/09/14 06:33:05;;;;;;;9.13;3.08;;;13.80;99.90;;;;;;4977288;28;20612;-65
2023/09/14 06:35:31;;;;;;;8.35;2.92;;;13.80;99.90;;;;;;4956287;28;20193;-66
2023/09/14 06:37:57;;;;;;;13.40;2.80;;;13.80;99.90;;;;;;4966667;28;20185;-69
2023/09/14 06:40:24;;;;;;;12.38;3.00;;;13.90;99.90;;;;;;4967773;28;20178;-65
2023/09/14 06:42:50;;;;;;;11.32;2.78;;;13.90;99.90;;;;;;4942875;28;20277;-72
2023/09/14 06:45:16;;;;;;;12.68;2.65;;;14.00;99.90;;;;;;4973814;28;20186;-68
2023/09/14 06:47:42;;;;;;;7.57;2.45;;;14.00;99.90;;;;;;4955524;28;20210;-67
2023/09/14 06:50:08;;;;;;;10.52;2.90;;;14.10;99.90;;;;;;4974118;28;20185;-68
2023/09/14 06:52:34;;;;;;;8.07;2.90;;;14.10;99.90;;;;;;4969846;28;20182;-69
2023/09/14 06:55:00;;;;;;;10.05;2.80;;;14.20;99.90;;;;;;4971116;28;20186;-66
2023/09/14 06:57:26;;;;;;;8.45;2.80;;;14.20;99.90;;;;;;4944366;28;20248;-66
2023/09/14 06:59:52;;;;;;;12.50;2.63;;;14.30;99.90;;;;;;4974228;28;20215;-67
2023/09/14 07:02:18;;;;;;;8.75;2.35;;;14.30;99.90;;;;;;4956409;28;20273;-67
2023/09/14 07:04:44;;;;;;;10.40;2.60;;;14.40;99.90;;;;;;4973041;28;20225;-70
2023/09/14 07:07:09;;;;;;;6.65;2.35;;;14.50;99.90;;;;;;4972674;28;20741;-67
2023/09/14 07:09:35;;;;;;;15.15;2.75;;;14.50;99.90;;;;;;4954857;28;20190;-66
2023/09/14 07:12:02;;;;;;;8.23;2.72;;;14.60;99.90;;;;;;4967326;28;20182;-66
2023/09/14 07:14:29;;;;;;;11.98;2.22;;;14.60;99.90;;;;;;4972783;28;20201;-67
2023/09/14 07:16:54;;;;;;;10.38;2.40;;;14.70;99.90;;;;;;4969129;28;20185;-66
2023/09/14 07:19:26;;;;;;;13.70;2.42;;;14.80;99.90;;;;;;4953776;28;20273;-66
2023/09/14 07:21:54;;;;;;;6.75;2.25;;;14.90;99.90;;;;;;4972300;28;20647;-67
2023/09/14 07:24:21;;;;;;;9.18;2.35;;;14.90;99.90;;;;;;4972266;28;20194;-66
2023/09/14 07:26:47;;;;;;;7.68;2.10;;;15.00;99.90;;;;;;4969563;28;20308;-68
2023/09/14 07:29:14;;;;;;;11.18;2.10;;;15.10;99.90;;;;;;4970336;28;20273;-67
2023/09/14 07:31:40;;;;;;;8.65;2.25;;;15.10;99.90;;;;;;4972637;28;20556;-66
2023/09/14 07:34:06;;;;;;;9.43;2.20;;;15.20;99.90;;;;;;4972892;28;20262;-67
2023/09/14 07:36:32;;;;;;;5.40;2.05;;;15.30;99.90;;;;;;4954253;28;20197;-66
2023/09/14 07:38:59;;;;;;;8.20;2.40;;;15.30;99.90;;;;;;4972852;28;20666;-68
2023/09/14 07:41:26;;;;;;;9.40;2.67;;;15.40;99.90;;;;;;4972122;28;20968;-67
2023/09/14 07:43:52;;;;;;;13.90;2.03;;;15.50;99.90;;;;;;4964779;28;20516;-68
2023/09/14 07:46:18;;;;;;;11.70;3.03;;;15.50;99.90;;;;;;4971184;28;20256;-66
2023/09/14 07:48:44;;;;;;;5.70;1.80;;;15.60;99.90;;;;;;4951093;28;20656;-65
2023/09/14 07:51:10;;;;;;;8.60;1.83;;;15.60;99.90;;;;;;4975860;28;20216;-68
2023/09/14 07:53:36;;;;;;;7.93;1.90;;;15.70;99.90;;;;;;4972616;28;20190;-70
2023/09/14 07:56:02;;;;;;;9.52;2.70;;;15.80;99.90;;;;;;4971794;28;20194;-67
2023/09/14 07:58:28;;;;;;;10.40;2.42;;;15.90;99.90;;;;;;4953740;28;20725;-67
2023/09/14 08:00:54;;;;;;;7.00;2.25;;;16.00;99.90;;;;;;4972477;28;20265;-67
2023/09/14 08:03:20;;;;;;;6.70;1.70;;;16.10;99.90;;;;;;4971507;28;20183;-66
2023/09/14 08:05:50;;;;;;;8.02;2.10;;;16.10;99.90;;;;;;4972120;28;20712;-65
2023/09/14 08:08:17;;;;;;;4.20;1.65;;;16.10;99.90;;;;;;4970385;28;20202;-67
2023/09/14 08:10:52;;;;;;;7.63;1.90;;;16.20;99.90;;;;;;4936458;28;20198;-67
2023/09/14 08:13:19;;;;;;;7.95;2.00;;;16.30;99.90;;;;;;4970575;28;20185;-66
2023/09/14 08:15:45;;;;;;;8.40;1.70;;;16.30;99.90;;;;;;4971307;28;20583;-67
2023/09/14 08:18:10;;;;;;;10.35;2.95;;;16.40;99.90;;;;;;4970277;28;20281;-66
2023/09/14 08:20:43;;;;;;;7.00;1.90;;;16.50;99.90;;;;;;4968447;28;20189;-66
2023/09/14 08:23:15;;;;;;;6.53;2.10;;;16.50;99.90;;;;;;4977070;28;20261;-67
2023/09/14 08:25:45;;;;;;;6.57;2.33;;;16.60;99.90;;;;;;4972642;28;20181;-67
2023/09/14 08:28:17;;;;;;;5.30;2.47;;;16.80;99.90;;;;;;4971617;28;20206;-65
2023/09/14 08:30:43;;;;;;;7.50;2.00;;;16.80;99.90;;;;;;4965956;28;20263;-65
2023/09/14 08:33:13;;;;;;;7.32;2.15;;;16.90;99.90;;;;;;4954939;28;20242;-64
2023/09/14 08:35:39;;;;;;;8.48;1.90;;;17.00;99.90;;;;;;4971569;28;20244;-65
2023/09/14 08:38:07;;;;;;;9.55;2.00;;;17.10;99.90;;;;;;4954082;28;20553;-67
2023/09/14 08:40:34;;;;;;;13.88;1.98;;;17.20;99.90;;;;;;4956402;28;20186;-65
2023/09/14 08:43:01;;;;;;;6.72;1.65;;;17.20;99.90;;;;;;4958332;28;20190;-64
2023/09/14 08:45:33;;;;;;;7.93;2.03;;;17.20;99.90;;;;;;4975066;28;20196;-69
2023/09/14 08:48:01;;;;;;;5.07;1.52;;;17.30;99.90;;;;;;4955216;28;20661;-68
2023/09/14 08:50:30;;;;;;;12.75;2.22;;;17.30;99.90;;;;;;4975110;28;20186;-67
2023/09/14 08:52:56;;;;;;;4.85;1.80;;;17.40;99.90;;;;;;4951859;28;20201;-66
2023/09/14 08:55:24;;;;;;;5.38;1.65;;;17.40;99.90;;;;;;4983537;28;20209;-69
2023/09/14 08:57:51;;;;;;;10.90;3.45;;;17.40;99.90;;;;;;4973038;28;20178;-70
2023/09/14 09:00:19;;;;;;;10.38;4.30;;;17.50;99.90;;;;;;4973782;28;20271;-66
2023/09/14 09:02:50;;;;;;;8.05;2.25;;;17.50;99.90;;;;;;4976300;28;20190;-67
2023/09/14 09:05:17;;;;;;;9.00;5.70;;;17.60;99.90;;;;;;4975347;28;20189;-65
2023/09/14 09:07:44;;;;;;;5.60;2.00;;;17.70;99.90;;;;;;4973549;28;20214;-66
2023/09/14 09:10:16;;;;;;;7.50;2.30;;;17.80;99.90;;;;;;4988110;28;20270;-68
2023/09/14 09:12:42;;;;;;;11.02;2.65;;;17.90;99.90;;;;;;4949984;28;20195;-66
2023/09/14 09:15:09;;;;;;;8.88;2.35;;;17.90;99.90;;;;;;4975406;28;20186;-68
2023/09/14 09:17:39;;;;;;;12.50;1.90;;;18.00;99.90;;;;;;4973006;28;20194;-68
2023/09/14 09:20:22;;;;;;;10.18;1.95;;;18.10;99.90;;;;;;4969992;28;20182;-67
2023/09/14 09:22:55;;;;;;;6.95;2.83;;;18.20;99.90;;;;;;4971714;28;20316;-67
2023/09/14 09:25:22;;;;;;;5.75;1.70;;;18.40;99.90;;;;;;4966603;28;20181;-65
2023/09/14 09:28:00;;;;;;;7.50;1.95;;;18.50;99.90;;;;;;4957720;28;20238;-66
2023/09/14 09:30:33;;;;;;;11.60;2.00;;;18.60;99.90;;;;;;4955271;28;20618;-68
2023/09/14 09:32:59;;;;;;;5.13;1.90;;;18.70;99.90;;;;;;4975392;28;20181;-65
2023/09/14 09:35:27;;;;;;;10.60;2.20;;;18.80;99.90;;;;;;4975215;28;20273;-65
2023/09/14 09:37:55;;;;;;;8.77;2.10;;;19.00;99.90;;;;;;4972707;28;20657;-66
2023/09/14 09:40:27;;;;;;;6.72;2.00;;;19.10;99.90;;;;;;4972257;28;20209;-69
2023/09/14 09:42:54;;;;;;;6.35;1.75;;;19.20;99.90;;;;;;4974956;28;20178;-66
2023/09/14 09:45:24;;;;;;;5.38;1.88;;;19.30;99.90;;;;;;4953942;28;20218;-65
2023/09/14 09:47:51;;;;;;;6.05;2.00;;;19.50;99.60;;;;;;4974759;28;20278;-68
2023/09/14 09:50:21;;;;;;;9.93;2.17;;;19.50;99.00;;;;;;4941758;28;20209;-65
2023/09/14 09:52:48;;;;;;;4.53;1.77;;;19.60;98.50;;;;;;4974835;28;20182;-65
2023/09/14 09:55:23;;;;;;;9.93;2.10;;;19.70;98.10;;;;;;4957240;28;20285;-67
2023/09/14 09:57:59;;;;;;;11.20;3.70;;;19.70;97.70;;;;;;4969701;28;20189;-65
2023/09/14 10:00:31;;;;;;;9.20;2.10;;;19.80;97.50;;;;;;4974101;28;20185;-67
2023/09/14 10:02:57;;;;;;;12.32;3.30;;;19.80;97.30;;;;;;4957263;28;20671;-66
2023/09/14 10:05:31;;;;;;;7.32;2.60;;;19.80;97.10;;;;;;4974599;28;20264;-67
2023/09/14 10:08:02;;;;;;;8.40;2.53;;;19.80;96.80;;;;;;4971380;28;20201;-67
2023/09/14 10:10:29;;;;;;;10.07;2.30;;;19.80;96.90;;;;;;4973876;28;20232;-69
2023/09/14 10:12:56;;;;;;;8.10;2.50;;;19.80;97.00;;;;;;4973843;28;20623;-69
2023/09/14 10:15:27;;;;;;;9.85;2.50;;;19.80;96.90;;;;;;4957112;28;20618;-70
2023/09/14 10:17:57;;;;;;;9.35;1.95;;;19.80;97.00;;;;;;4940831;28;20552;-75
2023/09/14 10:20:25;;;;;;;7.15;2.13;;;19.80;96.90;;;;;;4973898;28;20170;-66
2023/09/14 10:22:51;;;;;;;8.90;2.15;;;19.80;96.60;;;;;;4974432;28;20182;-67
2023/09/14 10:25:21;;;;;;;8.88;1.95;;;19.90;96.20;;;;;;4974319;28;20209;-66
2023/09/14 10:27:48;;;;;;;8.88;2.70;;;19.70;96.10;;;;;;4956228;28;20260;-67
2023/09/14 10:30:16;;;;;;;10.43;3.03;;;19.80;96.30;;;;;;4940531;28;20182;-68
2023/09/14 10:32:43;;;;;;;9.13;3.03;;;19.80;96.50;;;;;;4970591;28;20188;-69
2023/09/14 10:35:10;;;;;;;10.52;2.20;;;19.90;96.50;;;;;;4956343;28;20216;-68
2023/09/14 10:37:40;;;;;;;5.68;2.20;;;20.00;96.80;;;;;;4974507;28;20284;-70
2023/09/14 10:40:11;;;;;;;7.00;2.10;;;20.10;96.50;;;;;;4973447;28;20275;-70
2023/09/14 10:42:37;;;;;;;5.70;2.03;;;20.20;96.40;;;;;;4971743;28;20190;-67
2023/09/14 10:45:04;;;;;;;9.27;2.10;;;20.30;96.30;;;;;;4973688;28;20233;-67
2023/09/14 10:47:36;;;;;;;10.18;2.30;;;20.30;96.20;;;;;;4939371;28;20313;-70
2023/09/14 10:50:08;;;;;;;6.40;2.00;;;20.40;95.90;;;;;;4973822;28;20249;-65
2023/09/14 10:52:34;;;;;;;7.38;2.35;;;20.40;95.40;;;;;;4938636;28;20252;-68
2023/09/14 10:55:05;;;;;;;6.00;2.05;;;20.40;95.20;;;;;;4972003;28;20182;-67
2023/09/14 10:57:31;;;;;;;9.05;2.08;;;20.50;94.90;;;;;;4973797;28;20310;-66
2023/09/14 10:59:58;;;;;;;8.25;1.90;;;20.50;94.70;;;;;;4974857;28;20274;-71
2023/09/14 11:02:37;;;;;;;10.40;2.30;;;20.40;94.80;;;;;;4975415;28;20205;-70
2023/09/14 11:05:16;;;;;;;8.70;2.05;;;20.40;94.90;;;;;;4968935;28;20543;-65
2023/09/14 11:07:44;;;;;;;5.90;2.05;;;20.40;95.00;;;;;;4972877;28;20252;-72
2023/09/14 11:10:18;;;;;;;7.43;2.10;;;20.40;94.90;;;;;;4952463;28;20235;-73
2023/09/14 11:12:45;;;;;;;8.23;2.42;;;20.30;94.70;;;;;;4972456;28;20797;-69
2023/09/14 11:15:21;;;;;;;8.15;2.45;;;20.20;94.60;;;;;;4952773;28;20607;-67
2023/09/14 11:17:54;;;;;;;7.03;2.28;;;20.20;94.70;;;;;;4971803;28;20248;-68
2023/09/14 11:20:20;;;;;;;6.15;2.15;;;20.10;94.60;;;;;;4956539;28;20193;-68
2023/09/14 11:22:51;;;;;;;7.68;2.25;;;20.10;94.70;;;;;;4972792;28;20193;-68
2023/09/14 11:25:27;;;;;;;10.13;2.67;;;20.00;95.00;;;;;;4970446;28;20717;-69
2023/09/14 11:27:53;;;;;;;9.77;2.47;;;20.00;95.40;;;;;;4955478;28;20260;-67
2023/09/14 11:30:24;;;;;;;9.63;2.33;;;20.00;95.00;;;;;;4973617;28;20194;-67
2023/09/14 11:32:54;;;;;;;7.20;2.40;;;20.00;95.00;;;;;;4924021;28;20836;-69
2023/09/14 11:35:44;;;;;;;7.80;2.60;;;20.00;94.80;;;;;;4970114;28;20189;-67
2023/09/14 11:38:16;;;;;;;11.68;2.40;;;20.10;94.40;;;;;;4967993;28;20289;-69
2023/09/14 11:40:43;;;;;;;8.20;2.33;;;20.10;94.20;;;;;;4953681;28;20588;-68
2023/09/14 11:43:21;;;;;;;8.85;2.30;;;20.10;94.40;;;;;;4972872;28;20610;-68
2023/09/14 11:46:10;;;;;;;7.03;2.70;;;20.20;94.50;;;;;;4970347;28;20200;-66
2023/09/14 11:48:39;;;;;;;6.57;2.05;;;20.10;94.70;;;;;;4971608;28;20641;-70
2023/09/14 11:51:06;;;;;;;6.78;2.10;;;20.20;94.70;;;;;;4955193;28;20281;-68
2023/09/14 11:53:35;;;;;;;9.93;2.40;;;20.20;94.80;;;;;;4973150;28;20306;-68
2023/09/14 11:56:01;;;;;;;5.47;2.97;;;20.30;94.80;;;;;;4971690;28;20200;-67
2023/09/14 11:58:32;;;;;;;12.43;2.78;;;20.40;94.90;;;;;;4972688;28;20190;-69
2023/09/14 12:00:58;;;;;;;11.88;4.63;;;20.50;94.80;;;;;;4960972;28;20200;-70
2023/09/14 12:03:24;;;;;;;12.27;3.45;;;20.60;95.00;;;;;;4972167;28;20177;-68
2023/09/14 12:05:54;;;;;;;8.60;2.80;;;20.70;94.50;;;;;;4954713;28;20186;-68
2023/09/14 12:08:20;;;;;;;8.40;2.60;;;20.70;94.30;;;;;;4969549;28;20212;-69
2023/09/14 12:10:52;;;;;;;6.07;2.70;;;20.70;94.10;;;;;;4952260;28;20281;-69
2023/09/14 12:13:18;;;;;;;10.98;3.90;;;20.70;94.20;;;;;;4970419;28;20525;-67
2023/09/14 12:15:46;;;;;;;7.13;2.40;;;20.70;94.40;;;;;;4972013;28;20193;-67
2023/09/14 12:18:16;;;;;;;7.72;2.50;;;20.80;94.20;;;;;;4971940;28;20502;-68
2023/09/14 12:20:44;;;;;;;6.53;2.70;;;20.80;93.60;;;;;;4971195;28;20185;-68
2023/09/14 12:23:12;;;;;;;9.07;3.60;;;20.80;93.40;;;;;;4969442;28;20196;-72
2023/09/14 12:25:40;;;;;;;10.50;3.35;;;20.90;93.40;;;;;;4955044;28;20182;-68
2023/09/14 12:28:10;;;;;;;5.25;2.30;;;20.90;93.70;;;;;;4971445;28;20210;-68
2023/09/14 12:30:37;;;;;;;8.30;2.40;;;21.00;93.70;;;;;;4938332;28;20233;-69
2023/09/14 12:33:05;;;;;;;7.75;3.00;;;21.10;93.40;;;;;;4952489;28;20194;-67
2023/09/14 12:35:32;;;;;;;7.63;2.88;;;21.10;93.50;;;;;;4954726;28;20189;-69
2023/09/14 12:38:04;;;;;;;6.13;2.80;;;21.20;93.40;;;;;;4971875;28;20202;-69
2023/09/14 12:40:34;;;;;;;7.55;2.42;;;21.20;93.10;;;;;;4955286;28;20202;-69
2023/09/14 12:43:04;;;;;;;6.40;2.50;;;21.30;93.00;;;;;;4966272;28;20190;-69
2023/09/14 12:45:34;;;;;;;12.13;2.70;;;21.30;93.00;;;;;;4939131;28;20193;-68